Latest Weather Observations for Horsley Park

IDN60801

Issued at 12:02 am EST Tuesday 31 May 2016 (issued every 30 minutes, with the page automatically refreshed every 10 minutes)

About weather observations | Map of weather stations | Latest weather observations for NSW | Other Formats
Station Details ID: 067119 Name: HORSLEY PARK EQUESTRIAN CENTRE AWS Lat: -33.85 Lon: 150.86 Height: 100.0 m
Data from the previous 72 hours. | See also: Recent months at Horsley Park
Date/Time
EST
Temp
°C
App
Temp
°C
Dew
Point
Rel
Hum
%
Delta-T
°C
Wind Press
QNH
hPa
Press
MSL
hPa
Rain
since 9 am
mm
Dir
 
Spd
km/h
Gust
km/h
Spd
kts
Gust
kts
30/10:00pm 8.7 6.5 3.1 68 2.4 WSW 4 9 2 5 - - 0.0
30/09:30pm 9.2 7.1 4.0 70 2.3 WSW 4 6 2 3 - - 0.0
30/09:00pm 10.8 8.6 5.1 68 2.6 WSW 6 9 3 5 - - 0.0
30/08:30pm 10.4 7.9 5.0 69 2.5 SW 7 9 4 5 - - 0.0
30/08:00pm 10.8 8.8 6.2 73 2.2 S 6 6 3 3 - - 0.0
30/07:30pm 10.0 8.2 5.2 72 2.2 SSE 4 6 2 3 - - 0.0
30/07:00pm 10.3 8.3 4.2 66 2.7 SSE 4 6 2 3 - - 0.0
30/06:30pm 10.3 8.3 2.4 58 3.4 SSE 2 4 1 2 - - 0.0
30/06:00pm 11.1 8.9 0.8 49 4.3 ESE 2 4 1 2 - - 0.0
30/05:30pm 11.8 9.2 0.9 47 4.6 SE 4 6 2 3 - - 0.0
30/05:00pm 13.9 11.6 0.2 39 5.8 NE 2 4 1 2 - - 0.0
30/04:30pm 16.0 14.0 0.2 34 6.8 CALM 0 0 0 0 - - 0.0
30/04:00pm 16.5 14.4 -0.7 31 7.3 CALM 0 0 0 0 - - 0.0
30/03:30pm 17.1 14.2 -1.1 29 7.7 S 4 6 2 3 - - 0.0
30/03:00pm 17.4 13.9 -1.3 28 7.9 SSE 7 11 4 6 - - 0.0
30/02:30pm 18.0 14.8 -0.3 29 7.9 WSW 6 9 3 5 - - 0.0
30/02:00pm 18.6 16.0 0.7 30 8.0 NNE 4 13 2 7 - - 0.0
30/01:30pm 17.8 15.1 0.0 30 7.7 WNW 4 7 2 4 - - 0.0
30/01:00pm 17.0 13.6 -0.7 30 7.5 W 7 11 4 6 - - 0.0
30/12:30pm 17.3 14.5 3.2 39 6.5 SSE 7 13 4 7 - - 0.0
30/12:00pm 16.6 14.0 3.3 41 6.1 WNW 6 7 3 4 - - 0.0
30/11:30am 15.6 13.0 3.1 43 5.7 WSW 6 9 3 5 - - 0.0
30/11:00am 14.3 11.5 3.2 47 5.0 NW 7 11 4 6 - - 0.0
30/10:30am 12.9 10.2 3.8 54 4.1 W 7 13 4 7 - - 0.0
30/10:00am 11.0 7.7 2.6 56 3.6 WNW 9 15 5 8 - - 0.0
30/09:30am 10.2 6.5 2.1 57 3.4 W 11 17 6 9 - - 0.0
30/09:00am 8.7 5.3 1.8 62 2.9 W 9 15 5 8 - - 0.0
30/08:30am 7.9 4.9 1.7 65 2.6 W 7 13 4 7 - - 0.0
30/08:00am 4.9 2.9 2.4 84 1.0 WNW 2 4 1 2 - - 0.0
30/07:30am 2.3 0.1 1.1 92 0.5 NW 2 7 1 4 - - 0.0
30/07:00am 1.1 -0.9 -0.4 90 0.5 CALM 0 2 0 1 - - 0.0
30/06:30am 1.7 -0.3 -0.1 88 0.7 CALM 0 0 0 0 - - 0.0
30/06:00am 2.1 0.1 0.0 86 0.8 CALM 0 0 0 0 - - 0.0
30/05:30am 3.4 0.7 0.3 80 1.2 W 4 7 2 4 - - 0.0
30/05:00am 3.6 1.2 -0.2 76 1.4 WNW 2 6 1 3 - - 0.0
30/04:30am 6.3 2.7 0.8 68 2.2 WSW 9 15 5 8 - - 0.0
30/04:00am 6.4 3.4 1.1 69 2.1 WSW 6 9 3 5 - - 0.0
30/03:30am 5.9 2.8 0.3 67 2.2 WSW 6 9 3 5 - - 0.0
30/03:00am 7.0 3.4 0.9 65 2.4 SW 9 15 5 8 - - 0.0
30/02:30am 6.1 3.1 0.9 69 2.1 SW 6 9 3 5 - - 0.0
30/02:00am 7.4 3.8 0.8 63 2.6 WSW 9 13 5 7 - - 0.0
30/01:30am 7.8 4.3 1.0 62 2.7 WSW 9 15 5 8 - - 0.0
30/01:00am 8.1 4.6 1.3 62 2.8 WSW 9 15 5 8 - - 0.0
30/12:30am 8.0 4.9 1.2 62 2.8 WSW 7 11 4 6 - - 0.0
30/12:00am 8.3 4.8 1.2 61 2.9 SW 9 13 5 7 - - 0.0
 
Date/Time
EST
Temp
°C
App
Temp
°C
Dew
Point
Rel
Hum
%
Delta-T
°C
Wind Press
QNH
hPa
Press
MSL
hPa
Rain
since 9 am
mm
Dir
 
Spd
km/h
Gust
km/h
Spd
kts
Gust
kts
29/11:30pm 8.6 5.5 1.5 61 2.9 WSW 7 9 4 5 - - 0.0
29/11:00pm 9.2 5.8 1.6 59 3.2 WSW 9 13 5 7 - - 0.0
29/10:30pm 9.1 5.6 1.5 59 3.2 SW 9 13 5 7 - - 0.0
29/10:00pm 9.4 6.3 1.6 58 3.3 SW 7 13 4 7 - - 0.0
29/09:30pm 10.0 6.9 1.4 55 3.6 WSW 7 9 4 5 - - 0.0
29/09:00pm 10.2 7.1 1.3 54 3.7 SW 7 9 4 5 - - 0.0
29/08:30pm 10.5 7.3 0.8 51 4.0 SW 7 11 4 6 - - 0.0
29/08:00pm 11.9 8.0 1.0 47 4.6 SW 11 17 6 9 - - 0.0
29/07:30pm 12.2 8.2 0.6 45 4.9 SW 11 15 6 8 - - 0.0
29/07:00pm 12.7 8.6 0.1 42 5.2 SW 11 15 6 8 - - 0.0
29/06:30pm 13.1 9.0 -0.2 40 5.5 SSW 11 17 6 9 - - 0.0
29/06:00pm 13.9 9.0 -0.5 37 6.0 SW 15 20 8 11 - - 0.0
29/05:30pm 14.0 9.4 -0.8 36 6.1 SSW 13 19 7 10 - - 0.0
29/05:00pm 15.0 11.1 -1.5 32 6.8 SW 9 13 5 7 - - 0.0
29/04:30pm 16.9 13.7 -0.3 31 7.4 SW 6 11 3 6 - - 0.0
29/04:00pm 17.3 15.3 0.0 31 7.5 CALM 0 2 0 1 - - 0.0
29/03:30pm 17.7 14.9 -0.1 30 7.7 SE 4 7 2 4 - - 0.0
29/03:00pm 18.6 16.3 0.2 29 8.1 WSW 2 6 1 3 - - 0.0
29/02:30pm 18.2 14.9 0.4 30 7.8 SW 7 11 4 6 - - 0.0
29/02:00pm 18.0 14.9 1.5 33 7.4 SW 7 11 4 6 - - 0.0
29/01:30pm 17.3 13.8 1.3 34 7.1 NW 9 13 5 7 - - 0.0
29/01:00pm 17.3 13.9 1.7 35 7.0 W 9 17 5 9 - - 0.0
29/12:30pm 16.7 12.4 1.2 35 6.9 WSW 13 20 7 11 - - 0.0
29/12:00pm 16.2 11.6 1.5 37 6.5 WSW 15 20 8 11 - - 0.0
29/11:30am 15.9 11.3 1.6 38 6.3 WSW 15 24 8 13 - - 0.0
29/11:00am 15.5 11.9 2.7 42 5.8 WSW 11 20 6 11 - - 0.0
29/10:30am 15.0 12.1 2.5 43 5.6 W 7 17 4 9 - - 0.0
29/10:00am 14.0 11.9 3.8 50 4.7 W 4 7 2 4 - - 0.0
29/09:30am 12.4 10.3 4.1 57 3.8 NNW 4 6 2 3 - - 0.0
29/09:00am 10.3 8.3 4.2 66 2.7 NNE 4 6 2 3 - - 4.4
29/08:30am 9.2 8.0 4.8 74 2.0 CALM 0 0 0 0 - - 4.4
29/08:00am 6.9 5.5 3.5 79 1.4 CALM 0 0 0 0 - - 4.4
29/07:30am 4.5 2.9 2.5 87 0.8 CALM 0 0 0 0 - - 4.4
29/07:00am 3.9 1.8 1.6 85 0.9 W 2 2 1 1 - - 4.4
29/06:30am 3.7 2.0 2.1 89 0.6 CALM 0 4 0 2 - - 4.4
29/06:00am 3.4 1.7 1.6 88 0.7 CALM 0 2 0 1 - - 4.4
29/05:30am 4.0 2.3 1.7 85 0.9 CALM 0 0 0 0 - - 4.4
29/05:00am 5.3 3.3 2.1 80 1.3 WNW 2 6 1 3 - - 4.4
29/04:30am 4.7 3.0 2.1 83 1.0 CALM 0 0 0 0 - - 4.4
29/04:00am 5.2 2.9 2.6 83 1.1 NW 4 6 2 3 - - 4.4
29/03:30am 4.6 2.5 2.0 83 1.0 WNW 2 6 1 3 - - 4.4
29/03:00am 5.3 2.6 2.7 83 1.1 WNW 6 7 3 4 - - 4.4
29/02:30am 4.4 2.8 2.4 87 0.8 CALM 0 0 0 0 - - 4.4
29/02:00am 4.7 3.0 2.1 83 1.0 CALM 0 0 0 0 - - 4.4
29/01:30am 5.5 3.5 2.2 79 1.3 WNW 2 6 1 3 - - 4.4
29/01:00am 5.4 3.0 2.2 80 1.3 W 4 6 2 3 - - 4.4
29/12:30am 7.5 5.4 1.8 67 2.3 W 2 6 1 3 - - 4.4
29/12:00am 9.1 6.5 3.1 66 2.6 W 6 9 3 5 - - 4.4
 
Date/Time
EST
Temp
°C
App
Temp
°C
Dew
Point
Rel
Hum
%
Delta-T
°C
Wind Press
QNH
hPa
Press
MSL
hPa
Rain
since 9 am
mm
Dir
 
Spd
km/h
Gust
km/h
Spd
kts
Gust
kts
28/11:30pm 7.7 6.1 2.4 69 2.2 CALM 0 4 0 2 - - 4.4
28/11:00pm 8.8 6.5 2.8 66 2.6 WNW 4 7 2 4 - - 4.4
28/10:30pm 9.9 7.7 3.4 64 2.8 WSW 4 7 2 4 - - 4.4
28/10:00pm 10.1 7.4 3.8 65 2.8 WNW 7 13 4 7 - - 4.4
28/09:30pm 11.0 8.3 3.8 61 3.2 W 7 15 4 8 - - 4.4
28/09:00pm 11.3 8.3 4.3 62 3.2 WSW 9 17 5 9 - - 4.4
28/08:30pm 11.0 8.5 4.7 65 2.9 WSW 7 13 4 7 - - 4.4
28/08:00pm 10.4 8.0 4.3 66 2.7 W 6 9 3 5 - - 4.4
28/07:30pm 10.4 8.4 4.3 66 2.7 W 4 6 2 3 - - 4.4
28/07:00pm 11.3 8.9 4.3 62 3.2 W 6 7 3 4 - - 4.4
28/06:30pm 11.4 9.1 4.6 63 3.1 W 6 7 3 4 - - 4.4
28/06:00pm 12.4 9.1 4.6 59 3.6 WSW 11 22 6 12 - - 4.4
28/05:30pm 12.4 10.0 4.1 57 3.8 WSW 6 9 3 5 - - 4.4
28/05:00pm 13.3 10.8 3.9 53 4.3 WSW 6 9 3 5 - - 4.4
28/04:30pm 14.6 11.1 3.7 48 5.0 W 11 22 6 12 - - 4.4
28/04:00pm 14.6 11.6 5.9 56 4.2 WSW 11 22 6 12 - - 4.4
28/03:30pm 14.7 13.0 7.5 62 3.6 WSW 6 9 3 5 - - 4.4
28/03:00pm 15.4 13.4 6.9 57 4.2 W 7 11 4 6 - - 4.4
28/02:30pm 15.0 13.2 8.0 63 3.5 NW 7 9 4 5 - - 4.4
28/02:00pm 12.7 12.5 9.2 79 1.8 CALM 0 0 0 0 - - 4.4
28/01:30pm 11.8 11.6 9.0 83 1.4 CALM 0 0 0 0 - - 4.4
28/01:00pm 10.9 10.2 8.7 86 1.1 NNW 2 4 1 2 - - 4.4
28/12:30pm 10.5 9.4 8.4 87 1.0 SW 4 6 2 3 - - 4.4
28/12:00pm 11.1 9.8 9.2 88 1.0 WSW 6 9 3 5 - - 4.4
28/11:30am 11.6 10.8 9.5 87 1.1 NW 4 6 2 3 - - 4.4
28/11:00am 10.4 10.3 9.5 94 0.5 CALM 0 4 0 2 - - 4.4
28/10:30am 9.8 8.8 8.7 93 0.5 N 4 6 2 3 - - 3.8
28/10:00am 9.3 7.7 8.1 92 0.6 NNW 6 9 3 5 - - 2.2
28/09:30am 8.6 7.2 7.1 90 0.7 NW 4 6 2 3 - - 1.6
28/09:00am 8.6 6.3 5.9 83 1.2 NNW 7 9 4 5 - - 0.6
28/08:30am 9.4 7.1 5.0 74 2.0 NW 6 9 3 5 - - 0.0
28/08:00am 10.1 7.6 4.9 70 2.4 NNW 7 13 4 7 - - 0.0
28/07:30am 10.1 8.2 4.7 69 2.4 NNW 4 7 2 4 - - 0.0
28/07:00am 9.3 7.3 4.3 71 2.2 NW 4 7 2 4 - - 0.0
28/06:30am 8.7 6.2 3.9 72 2.1 NNW 6 13 3 7 - - 0.0
28/06:00am 8.5 5.8 3.9 73 2.0 N 7 13 4 7 - - 0.0
28/05:30am 7.6 5.8 3.3 74 1.8 N 2 6 1 3 - - 0.0
28/05:00am 8.3 5.2 3.6 72 2.0 N 9 13 5 7 - - 0.0
28/04:30am 6.5 4.2 2.6 76 1.6 N 4 7 2 4 - - 0.0
28/04:00am 6.9 5.3 2.4 73 1.9 CALM 0 2 0 1 - - 0.0
28/03:30am 6.6 4.5 1.9 72 1.9 N 2 6 1 3 - - 0.0
28/03:00am 6.8 5.1 2.1 72 1.9 CALM 0 0 0 0 - - 0.0
28/02:30am 6.9 4.8 1.8 70 2.1 N 2 6 1 3 - - 0.0
28/02:00am 5.7 4.0 2.0 77 1.5 CALM 0 0 0 0 - - 0.0
28/01:30am 7.5 5.8 1.8 67 2.3 CALM 0 0 0 0 - - 0.0
28/01:00am 7.0 5.2 0.9 65 2.4 CALM 0 6 0 3 - - 0.0
28/12:30am 6.9 5.1 1.0 66 2.4 CALM 0 0 0 0 - - 0.0

Other Formats:

Comma delimited format used in spreadsheet applications
http://www.bom.gov.au/fwo/IDN60801/IDN60801.94760.axf

JavaScript Object Notation format (JSON) in row-major order
http://www.bom.gov.au/fwo/IDN60801/IDN60801.94760.json